sensor_id;sensor_type;location;lat;lon;timestamp;temperature;humidity
27534;DHT22;14973;51.460;7.008;2023-10-31T00:01:28;12.60;99.90
27534;DHT22;14973;51.460;7.008;2023-10-31T00:03:54;12.40;99.90
27534;DHT22;14973;51.460;7.008;2023-10-31T00:06:20;12.30;99.90
27534;DHT22;14973;51.460;7.008;2023-10-31T00:08:45;12.20;99.90
27534;DHT22;14973;51.460;7.008;2023-10-31T00:11:11;12.20;99.90
27534;DHT22;14973;51.460;7.008;2023-10-31T00:13:37;12.10;99.90
27534;DHT22;14973;51.460;7.008;2023-10-31T00:16:03;12.00;99.90
27534;DHT22;14973;51.460;7.008;2023-10-31T00:18:29;11.90;99.90
27534;DHT22;14973;51.460;7.008;2023-10-31T00:20:54;11.80;99.90
27534;DHT22;14973;51.460;7.008;2023-10-31T00:23:22;11.70;99.90
27534;DHT22;14973;51.460;7.008;2023-10-31T00:25:47;11.70;99.90
27534;DHT22;14973;51.460;7.008;2023-10-31T00:28:13;11.70;99.90
27534;DHT22;14973;51.460;7.008;2023-10-31T00:30:39;11.60;99.90
27534;DHT22;14973;51.460;7.008;2023-10-31T00:33:04;11.50;99.90
27534;DHT22;14973;51.460;7.008;2023-10-31T00:35:30;11.50;99.90
27534;DHT22;14973;51.460;7.008;2023-10-31T00:37:56;11.60;99.90
27534;DHT22;14973;51.460;7.008;2023-10-31T00:40:21;11.40;99.90
27534;DHT22;14973;51.460;7.008;2023-10-31T00:42:47;11.40;99.90
27534;DHT22;14973;51.460;7.008;2023-10-31T00:45:13;11.40;99.90
27534;DHT22;14973;51.460;7.008;2023-10-31T00:47:38;11.40;99.90
27534;DHT22;14973;51.460;7.008;2023-10-31T00:50:04;11.40;99.90
27534;DHT22;14973;51.460;7.008;2023-10-31T00:52:30;11.40;99.90
27534;DHT22;14973;51.460;7.008;2023-10-31T00:54:55;11.40;99.90
27534;DHT22;14973;51.460;7.008;2023-10-31T00:57:21;11.40;99.90
27534;DHT22;14973;51.460;7.008;2023-10-31T00:59:46;11.30;99.90
27534;DHT22;14973;51.460;7.008;2023-10-31T01:02:12;11.30;99.90
27534;DHT22;14973;51.460;7.008;2023-10-31T01:04:38;11.30;99.90
27534;DHT22;14973;51.460;7.008;2023-10-31T01:07:04;11.20;99.90
27534;DHT22;14973;51.460;7.008;2023-10-31T01:09:30;11.20;99.90
27534;DHT22;14973;51.460;7.008;2023-10-31T01:11:55;11.20;99.90
27534;DHT22;14973;51.460;7.008;2023-10-31T01:14:21;11.20;99.90
27534;DHT22;14973;51.460;7.008;2023-10-31T01:16:46;11.20;99.90
27534;DHT22;14973;51.460;7.008;2023-10-31T01:19:12;11.10;99.90
27534;DHT22;14973;51.460;7.008;2023-10-31T01:21:37;11.00;99.90
27534;DHT22;14973;51.460;7.008;2023-10-31T01:24:03;11.00;99.90
27534;DHT22;14973;51.460;7.008;2023-10-31T01:26:29;10.90;99.90
27534;DHT22;14973;51.460;7.008;2023-10-31T01:28:55;10.90;99.90
27534;DHT22;14973;51.460;7.008;2023-10-31T01:31:20;10.90;99.90
27534;DHT22;14973;51.460;7.008;2023-10-31T01:33:46;10.90;99.90
27534;DHT22;14973;51.460;7.008;2023-10-31T01:36:12;10.90;99.90
27534;DHT22;14973;51.460;7.008;2023-10-31T01:38:38;11.00;99.90
27534;DHT22;14973;51.460;7.008;2023-10-31T01:41:04;11.00;99.90
27534;DHT22;14973;51.460;7.008;2023-10-31T01:43:35;11.00;99.90
27534;DHT22;14973;51.460;7.008;2023-10-31T01:46:01;11.10;99.90
27534;DHT22;14973;51.460;7.008;2023-10-31T01:48:29;11.00;99.90
27534;DHT22;14973;51.460;7.008;2023-10-31T01:50:56;11.00;99.90
27534;DHT22;14973;51.460;7.008;2023-10-31T01:53:23;11.00;99.90
27534;DHT22;14973;51.460;7.008;2023-10-31T01:55:56;11.00;99.90
27534;DHT22;14973;51.460;7.008;2023-10-31T01:58:27;11.00;99.90
27534;DHT22;14973;51.460;7.008;2023-10-31T02:00:55;10.90;99.90
27534;DHT22;14973;51.460;7.008;2023-10-31T02:03:20;11.00;99.90
27534;DHT22;14973;51.460;7.008;2023-10-31T02:05:46;11.00;99.90
27534;DHT22;14973;51.460;7.008;2023-10-31T02:08:12;11.00;99.90
27534;DHT22;14973;51.460;7.008;2023-10-31T02:10:37;10.90;99.90
27534;DHT22;14973;51.460;7.008;2023-10-31T02:13:14;11.00;99.90
27534;DHT22;14973;51.460;7.008;2023-10-31T02:15:40;11.00;99.90
27534;DHT22;14973;51.460;7.008;2023-10-31T02:18:06;11.00;99.90
27534;DHT22;14973;51.460;7.008;2023-10-31T02:20:32;10.90;99.90
27534;DHT22;14973;51.460;7.008;2023-10-31T02:22:57;11.00;99.90
27534;DHT22;14973;51.460;7.008;2023-10-31T02:25:23;11.00;99.90
27534;DHT22;14973;51.460;7.008;2023-10-31T02:27:48;11.00;99.90
27534;DHT22;14973;51.460;7.008;2023-10-31T02:30:14;11.00;99.90
27534;DHT22;14973;51.460;7.008;2023-10-31T02:32:40;10.90;99.90
27534;DHT22;14973;51.460;7.008;2023-10-31T02:35:07;10.90;99.90
27534;DHT22;14973;51.460;7.008;2023-10-31T02:37:32;10.90;99.90
27534;DHT22;14973;51.460;7.008;2023-10-31T02:39:58;10.80;99.90
27534;DHT22;14973;51.460;7.008;2023-10-31T02:42:25;10.80;99.90
27534;DHT22;14973;51.460;7.008;2023-10-31T02:44:51;10.80;99.90
27534;DHT22;14973;51.460;7.008;2023-10-31T02:47:16;10.90;99.90
27534;DHT22;14973;51.460;7.008;2023-10-31T02:49:42;10.80;99.90
27534;DHT22;14973;51.460;7.008;2023-10-31T02:52:07;10.80;99.90
27534;DHT22;14973;51.460;7.008;2023-10-31T02:54:33;10.70;99.90
27534;DHT22;14973;51.460;7.008;2023-10-31T02:56:58;10.70;99.90
27534;DHT22;14973;51.460;7.008;2023-10-31T02:59:24;10.70;99.90
27534;DHT22;14973;51.460;7.008;2023-10-31T03:01:50;10.70;99.90
27534;DHT22;14973;51.460;7.008;2023-10-31T03:04:15;10.70;99.90
27534;DHT22;14973;51.460;7.008;2023-10-31T03:06:41;10.70;99.90
27534;DHT22;14973;51.460;7.008;2023-10-31T03:09:07;10.70;99.90
27534;DHT22;14973;51.460;7.008;2023-10-31T03:11:33;10.70;99.90
27534;DHT22;14973;51.460;7.008;2023-10-31T03:13:59;10.70;99.90
27534;DHT22;14973;51.460;7.008;2023-10-31T03:16:24;10.70;99.90
27534;DHT22;14973;51.460;7.008;2023-10-31T03:18:50;10.70;99.90
27534;DHT22;14973;51.460;7.008;2023-10-31T03:21:17;10.70;99.90
27534;DHT22;14973;51.460;7.008;2023-10-31T03:23:48;10.70;99.90
27534;DHT22;14973;51.460;7.008;2023-10-31T03:26:15;10.70;99.90
27534;DHT22;14973;51.460;7.008;2023-10-31T03:28:40;10.70;99.90
27534;DHT22;14973;51.460;7.008;2023-10-31T03:31:06;10.70;99.90
27534;DHT22;14973;51.460;7.008;2023-10-31T03:33:31;10.70;99.90
27534;DHT22;14973;51.460;7.008;2023-10-31T03:35:57;10.70;99.90
27534;DHT22;14973;51.460;7.008;2023-10-31T03:38:23;10.70;99.90
27534;DHT22;14973;51.460;7.008;2023-10-31T03:40:48;10.70;99.90
27534;DHT22;14973;51.460;7.008;2023-10-31T03:43:14;10.70;99.90
27534;DHT22;14973;51.460;7.008;2023-10-31T03:45:40;10.70;99.90
27534;DHT22;14973;51.460;7.008;2023-10-31T03:48:06;10.70;99.90
27534;DHT22;14973;51.460;7.008;2023-10-31T03:50:31;10.70;99.90
27534;DHT22;14973;51.460;7.008;2023-10-31T03:53:00;10.70;99.90
27534;DHT22;14973;51.460;7.008;2023-10-31T03:55:25;10.70;99.90
27534;DHT22;14973;51.460;7.008;2023-10-31T03:57:51;10.70;99.90
27534;DHT22;14973;51.460;7.008;2023-10-31T04:00:17;10.60;99.90
27534;DHT22;14973;51.460;7.008;2023-10-31T04:02:42;10.70;99.90
27534;DHT22;14973;51.460;7.008;2023-10-31T04:05:08;10.60;99.90
27534;DHT22;14973;51.460;7.008;2023-10-31T04:07:33;10.70;99.90
27534;DHT22;14973;51.460;7.008;2023-10-31T04:09:59;10.70;99.90
27534;DHT22;14973;51.460;7.008;2023-10-31T04:12:25;10.60;99.90
27534;DHT22;14973;51.460;7.008;2023-10-31T04:14:51;10.70;99.90
27534;DHT22;14973;51.460;7.008;2023-10-31T04:17:16;10.70;99.90
27534;DHT22;14973;51.460;7.008;2023-10-31T04:19:42;10.70;99.90
27534;DHT22;14973;51.460;7.008;2023-10-31T04:22:07;10.70;99.90
27534;DHT22;14973;51.460;7.008;2023-10-31T04:24:33;10.60;99.90
27534;DHT22;14973;51.460;7.008;2023-10-31T04:26:58;10.80;99.90
27534;DHT22;14973;51.460;7.008;2023-10-31T04:29:24;10.70;99.90
27534;DHT22;14973;51.460;7.008;2023-10-31T04:31:49;10.70;99.90
27534;DHT22;14973;51.460;7.008;2023-10-31T04:34:15;10.70;99.90
27534;DHT22;14973;51.460;7.008;2023-10-31T04:36:40;10.70;99.90
27534;DHT22;14973;51.460;7.008;2023-10-31T04:39:06;10.70;99.90
27534;DHT22;14973;51.460;7.008;2023-10-31T04:41:32;10.60;99.90
27534;DHT22;14973;51.460;7.008;2023-10-31T04:43:57;10.70;99.90
27534;DHT22;14973;51.460;7.008;2023-10-31T04:46:24;10.70;99.90
27534;DHT22;14973;51.460;7.008;2023-10-31T04:48:52;10.70;99.90
27534;DHT22;14973;51.460;7.008;2023-10-31T04:51:18;10.60;99.90
27534;DHT22;14973;51.460;7.008;2023-10-31T04:53:44;10.70;99.90
27534;DHT22;14973;51.460;7.008;2023-10-31T04:56:14;10.70;99.90
27534;DHT22;14973;51.460;7.008;2023-10-31T04:58:43;10.70;99.90
27534;DHT22;14973;51.460;7.008;2023-10-31T05:01:12;10.70;99.90
27534;DHT22;14973;51.460;7.008;2023-10-31T05:03:38;10.70;99.90
27534;DHT22;14973;51.460;7.008;2023-10-31T05:06:05;10.70;99.90
27534;DHT22;14973;51.460;7.008;2023-10-31T05:08:31;10.70;99.90
27534;DHT22;14973;51.460;7.008;2023-10-31T05:10:57;10.70;99.90
27534;DHT22;14973;51.460;7.008;2023-10-31T05:13:23;10.70;99.90
27534;DHT22;14973;51.460;7.008;2023-10-31T05:15:48;10.70;99.90
27534;DHT22;14973;51.460;7.008;2023-10-31T05:18:14;10.70;99.90
27534;DHT22;14973;51.460;7.008;2023-10-31T05:20:40;10.80;99.90
27534;DHT22;14973;51.460;7.008;2023-10-31T05:23:06;10.70;99.90
27534;DHT22;14973;51.460;7.008;2023-10-31T05:25:32;10.70;99.90
27534;DHT22;14973;51.460;7.008;2023-10-31T05:27:57;10.70;99.90
27534;DHT22;14973;51.460;7.008;2023-10-31T05:30:23;10.70;99.90
27534;DHT22;14973;51.460;7.008;2023-10-31T05:32:49;10.70;99.90
27534;DHT22;14973;51.460;7.008;2023-10-31T05:35:15;10.70;99.90
27534;DHT22;14973;51.460;7.008;2023-10-31T05:37:40;10.70;99.90
27534;DHT22;14973;51.460;7.008;2023-10-31T05:40:07;10.70;99.90
27534;DHT22;14973;51.460;7.008;2023-10-31T05:42:32;10.70;99.90
27534;DHT22;14973;51.460;7.008;2023-10-31T05:44:58;10.80;99.90
27534;DHT22;14973;51.460;7.008;2023-10-31T05:47:24;10.80;99.90
27534;DHT22;14973;51.460;7.008;2023-10-31T05:49:49;10.70;99.90
27534;DHT22;14973;51.460;7.008;2023-10-31T05:52:15;10.70;99.90
27534;DHT22;14973;51.460;7.008;2023-10-31T05:54:40;10.70;99.90
27534;DHT22;14973;51.460;7.008;2023-10-31T05:57:06;10.70;99.90
27534;DHT22;14973;51.460;7.008;2023-10-31T05:59:32;10.70;99.90
27534;DHT22;14973;51.460;7.008;2023-10-31T06:01:58;10.70;99.90
27534;DHT22;14973;51.460;7.008;2023-10-31T06:04:24;10.70;99.90
27534;DHT22;14973;51.460;7.008;2023-10-31T06:06:50;10.70;99.90
27534;DHT22;14973;51.460;7.008;2023-10-31T06:09:16;10.70;99.90
27534;DHT22;14973;51.460;7.008;2023-10-31T06:11:43;10.70;99.90
27534;DHT22;14973;51.460;7.008;2023-10-31T06:14:09;10.80;99.90
27534;DHT22;14973;51.460;7.008;2023-10-31T06:16:43;10.80;99.90
27534;DHT22;14973;51.460;7.008;2023-10-31T06:19:09;10.70;99.90
27534;DHT22;14973;51.460;7.008;2023-10-31T06:21:35;10.70;99.90
27534;DHT22;14973;51.460;7.008;2023-10-31T06:24:01;10.70;99.90
27534;DHT22;14973;51.460;7.008;2023-10-31T06:26:27;10.70;99.90
27534;DHT22;14973;51.460;7.008;2023-10-31T06:28:52;10.70;99.90
27534;DHT22;14973;51.460;7.008;2023-10-31T06:31:18;10.70;99.90
27534;DHT22;14973;51.460;7.008;2023-10-31T06:33:43;10.70;99.90
27534;DHT22;14973;51.460;7.008;2023-10-31T06:36:09;10.80;99.90
27534;DHT22;14973;51.460;7.008;2023-10-31T06:38:34;10.70;99.90
27534;DHT22;14973;51.460;7.008;2023-10-31T06:41:00;10.80;99.90
27534;DHT22;14973;51.460;7.008;2023-10-31T06:43:26;10.90;99.90
27534;DHT22;14973;51.460;7.008;2023-10-31T06:45:54;10.80;99.90
27534;DHT22;14973;51.460;7.008;2023-10-31T06:48:20;10.90;99.90
27534;DHT22;14973;51.460;7.008;2023-10-31T06:50:46;10.90;99.90
27534;DHT22;14973;51.460;7.008;2023-10-31T06:53:11;10.90;99.90
27534;DHT22;14973;51.460;7.008;2023-10-31T06:55:37;10.80;99.90
27534;DHT22;14973;51.460;7.008;2023-10-31T06:58:02;10.80;99.90
27534;DHT22;14973;51.460;7.008;2023-10-31T07:00:28;10.80;99.90
27534;DHT22;14973;51.460;7.008;2023-10-31T07:02:54;10.90;99.90
27534;DHT22;14973;51.460;7.008;2023-10-31T07:05:19;10.90;99.90
27534;DHT22;14973;51.460;7.008;2023-10-31T07:07:48;11.00;99.90
27534;DHT22;14973;51.460;7.008;2023-10-31T07:10:14;11.00;99.90
27534;DHT22;14973;51.460;7.008;2023-10-31T07:12:40;10.90;99.90
27534;DHT22;14973;51.460;7.008;2023-10-31T07:15:06;10.90;99.90
27534;DHT22;14973;51.460;7.008;2023-10-31T07:17:32;11.10;99.90
27534;DHT22;14973;51.460;7.008;2023-10-31T07:19:58;11.10;99.90
27534;DHT22;14973;51.460;7.008;2023-10-31T07:22:23;11.10;99.90
27534;DHT22;14973;51.460;7.008;2023-10-31T07:24:50;11.10;99.90
27534;DHT22;14973;51.460;7.008;2023-10-31T07:27:17;11.20;99.90
27534;DHT22;14973;51.460;7.008;2023-10-31T07:29:42;11.20;99.90
27534;DHT22;14973;51.460;7.008;2023-10-31T07:32:08;11.30;99.90
27534;DHT22;14973;51.460;7.008;2023-10-31T07:34:34;11.40;99.90
27534;DHT22;14973;51.460;7.008;2023-10-31T07:37:00;11.50;99.90
27534;DHT22;14973;51.460;7.008;2023-10-31T07:39:26;11.50;99.90
27534;DHT22;14973;51.460;7.008;2023-10-31T07:41:51;11.60;99.90
27534;DHT22;14973;51.460;7.008;2023-10-31T07:44:17;11.60;99.90
27534;DHT22;14973;51.460;7.008;2023-10-31T07:46:42;11.60;99.90
27534;DHT22;14973;51.460;7.008;2023-10-31T07:49:08;11.60;99.90
27534;DHT22;14973;51.460;7.008;2023-10-31T07:51:34;11.50;99.90
27534;DHT22;14973;51.460;7.008;2023-10-31T07:53:59;11.60;99.90
27534;DHT22;14973;51.460;7.008;2023-10-31T07:56:25;11.60;99.90
27534;DHT22;14973;51.460;7.008;2023-10-31T07:58:51;11.60;99.90
27534;DHT22;14973;51.460;7.008;2023-10-31T08:01:18;11.60;99.90
27534;DHT22;14973;51.460;7.008;2023-10-31T08:03:43;11.60;99.90
27534;DHT22;14973;51.460;7.008;2023-10-31T08:06:11;11.60;99.90
27534;DHT22;14973;51.460;7.008;2023-10-31T08:08:36;11.60;99.90
27534;DHT22;14973;51.460;7.008;2023-10-31T08:11:02;11.60;99.90
27534;DHT22;14973;51.460;7.008;2023-10-31T08:13:29;11.60;99.90
27534;DHT22;14973;51.460;7.008;2023-10-31T08:15:54;11.80;99.90
27534;DHT22;14973;51.460;7.008;2023-10-31T08:18:21;11.80;99.90
27534;DHT22;14973;51.460;7.008;2023-10-31T08:20:47;11.80;99.90
27534;DHT22;14973;51.460;7.008;2023-10-31T08:23:15;11.80;99.90
27534;DHT22;14973;51.460;7.008;2023-10-31T08:25:40;11.90;99.90
27534;DHT22;14973;51.460;7.008;2023-10-31T08:28:06;11.90;99.90
27534;DHT22;14973;51.460;7.008;2023-10-31T08:30:32;11.90;99.90
27534;DHT22;14973;51.460;7.008;2023-10-31T08:32:59;11.80;99.90
27534;DHT22;14973;51.460;7.008;2023-10-31T08:35:24;11.80;99.90
27534;DHT22;14973;51.460;7.008;2023-10-31T08:37:50;11.90;99.90
27534;DHT22;14973;51.460;7.008;2023-10-31T08:40:15;11.80;99.90
27534;DHT22;14973;51.460;7.008;2023-10-31T08:42:41;11.90;99.90
27534;DHT22;14973;51.460;7.008;2023-10-31T08:45:07;12.00;99.90
27534;DHT22;14973;51.460;7.008;2023-10-31T08:47:33;12.20;99.90
27534;DHT22;14973;51.460;7.008;2023-10-31T08:49:59;12.40;99.90
27534;DHT22;14973;51.460;7.008;2023-10-31T08:52:24;12.50;99.90
27534;DHT22;14973;51.460;7.008;2023-10-31T08:54:50;12.60;99.90
27534;DHT22;14973;51.460;7.008;2023-10-31T08:57:15;12.70;99.90
27534;DHT22;14973;51.460;7.008;2023-10-31T08:59:41;12.80;99.90
27534;DHT22;14973;51.460;7.008;2023-10-31T09:02:06;12.90;99.90
27534;DHT22;14973;51.460;7.008;2023-10-31T09:04:32;13.10;99.90
27534;DHT22;14973;51.460;7.008;2023-10-31T09:06:57;13.20;99.90
27534;DHT22;14973;51.460;7.008;2023-10-31T09:09:23;13.40;99.90
27534;DHT22;14973;51.460;7.008;2023-10-31T09:11:49;13.50;99.90
27534;DHT22;14973;51.460;7.008;2023-10-31T09:14:14;13.50;99.90
27534;DHT22;14973;51.460;7.008;2023-10-31T09:16:40;13.50;99.90
27534;DHT22;14973;51.460;7.008;2023-10-31T09:19:05;13.40;99.90
27534;DHT22;14973;51.460;7.008;2023-10-31T09:21:31;13.40;99.90
27534;DHT22;14973;51.460;7.008;2023-10-31T09:23:56;13.30;99.90
27534;DHT22;14973;51.460;7.008;2023-10-31T09:26:22;13.40;99.90
27534;DHT22;14973;51.460;7.008;2023-10-31T09:28:48;13.30;99.90
27534;DHT22;14973;51.460;7.008;2023-10-31T09:31:18;13.30;99.90
27534;DHT22;14973;51.460;7.008;2023-10-31T09:33:45;13.40;99.90
27534;DHT22;14973;51.460;7.008;2023-10-31T09:36:11;13.60;99.90
27534;DHT22;14973;51.460;7.008;2023-10-31T09:38:38;13.70;99.90
27534;DHT22;14973;51.460;7.008;2023-10-31T09:41:04;13.90;99.90
27534;DHT22;14973;51.460;7.008;2023-10-31T09:43:30;13.90;99.90
27534;DHT22;14973;51.460;7.008;2023-10-31T09:45:56;13.70;99.90
27534;DHT22;14973;51.460;7.008;2023-10-31T09:48:22;13.70;99.90
27534;DHT22;14973;51.460;7.008;2023-10-31T09:50:49;13.90;99.90
27534;DHT22;14973;51.460;7.008;2023-10-31T09:53:15;13.90;99.90
27534;DHT22;14973;51.460;7.008;2023-10-31T09:55:45;14.00;99.90
27534;DHT22;14973;51.460;7.008;2023-10-31T09:58:12;14.30;99.90
27534;DHT22;14973;51.460;7.008;2023-10-31T10:00:38;14.40;94.70
27534;DHT22;14973;51.460;7.008;2023-10-31T10:03:07;14.20;98.70
27534;DHT22;14973;51.460;7.008;2023-10-31T10:05:35;14.50;97.00
27534;DHT22;14973;51.460;7.008;2023-10-31T10:08:01;14.60;93.70
27534;DHT22;14973;51.460;7.008;2023-10-31T10:10:27;14.60;91.60
27534;DHT22;14973;51.460;7.008;2023-10-31T10:12:53;14.40;39.50
27534;DHT22;14973;51.460;7.008;2023-10-31T10:15:18;14.20;14.20
27534;DHT22;14973;51.460;7.008;2023-10-31T10:17:54;14.20;6.80
27534;DHT22;14973;51.460;7.008;2023-10-31T10:20:19;14.10;1.00
27534;DHT22;14973;51.460;7.008;2023-10-31T10:22:46;13.90;16.70
27534;DHT22;14973;51.460;7.008;2023-10-31T10:25:17;14.10;1.00
27534;DHT22;14973;51.460;7.008;2023-10-31T10:27:44;14.30;1.00
27534;DHT22;14973;51.460;7.008;2023-10-31T10:30:12;14.20;1.00
27534;DHT22;14973;51.460;7.008;2023-10-31T10:32:37;14.10;1.00
27534;DHT22;14973;51.460;7.008;2023-10-31T10:35:04;13.80;4.90
27534;DHT22;14973;51.460;7.008;2023-10-31T10:37:30;13.60;31.90
27534;DHT22;14973;51.460;7.008;2023-10-31T10:39:56;13.70;20.90
27534;DHT22;14973;51.460;7.008;2023-10-31T10:45:08;14.10;1.00
27534;DHT22;14973;51.460;7.008;2023-10-31T10:47:36;14.00;1.00
27534;DHT22;14973;51.460;7.008;2023-10-31T10:50:05;13.90;1.00
27534;DHT22;14973;51.460;7.008;2023-10-31T10:53:07;13.90;1.00
27534;DHT22;14973;51.460;7.008;2023-10-31T10:55:40;13.80;1.00
27534;DHT22;14973;51.460;7.008;2023-10-31T11:01:02;13.60;17.60
27534;DHT22;14973;51.460;7.008;2023-10-31T11:03:30;13.60;15.70
27534;DHT22;14973;51.460;7.008;2023-10-31T11:05:57;13.70;17.00
27534;DHT22;14973;51.460;7.008;2023-10-31T11:08:24;13.80;1.00
27534;DHT22;14973;51.460;7.008;2023-10-31T11:10:50;13.90;1.00
27534;DHT22;14973;51.460;7.008;2023-10-31T11:13:15;14.10;1.00
27534;DHT22;14973;51.460;7.008;2023-10-31T11:15:42;14.20;1.00
27534;DHT22;14973;51.460;7.008;2023-10-31T11:18:09;14.30;1.00
27534;DHT22;14973;51.460;7.008;2023-10-31T11:20:36;14.20;1.00
27534;DHT22;14973;51.460;7.008;2023-10-31T11:23:02;14.30;1.00
27534;DHT22;14973;51.460;7.008;2023-10-31T11:25:32;14.30;1.00
27534;DHT22;14973;51.460;7.008;2023-10-31T11:28:13;14.30;1.00
27534;DHT22;14973;51.460;7.008;2023-10-31T11:30:40;14.30;1.00
27534;DHT22;14973;51.460;7.008;2023-10-31T11:33:06;14.30;1.00
27534;DHT22;14973;51.460;7.008;2023-10-31T11:35:38;14.30;1.00
27534;DHT22;14973;51.460;7.008;2023-10-31T11:38:09;14.30;1.00
27534;DHT22;14973;51.460;7.008;2023-10-31T11:40:59;14.40;1.00
27534;DHT22;14973;51.460;7.008;2023-10-31T11:43:25;14.50;1.00
27534;DHT22;14973;51.460;7.008;2023-10-31T11:45:52;14.60;1.00
27534;DHT22;14973;51.460;7.008;2023-10-31T11:48:17;14.60;99.90
27534;DHT22;14973;51.460;7.008;2023-10-31T11:51:03;14.50;1.00
27534;DHT22;14973;51.460;7.008;2023-10-31T11:53:29;14.80;1.00
27534;DHT22;14973;51.460;7.008;2023-10-31T11:55:55;15.00;99.90
27534;DHT22;14973;51.460;7.008;2023-10-31T11:58:23;15.20;99.90
27534;DHT22;14973;51.460;7.008;2023-10-31T12:00:52;15.20;99.90
27534;DHT22;14973;51.460;7.008;2023-10-31T12:03:19;15.00;99.90
27534;DHT22;14973;51.460;7.008;2023-10-31T12:05:57;15.00;99.90
27534;DHT22;14973;51.460;7.008;2023-10-31T12:11:04;15.00;99.90
27534;DHT22;14973;51.460;7.008;2023-10-31T12:13:29;15.00;99.90
27534;DHT22;14973;51.460;7.008;2023-10-31T12:15:55;15.00;99.90
27534;DHT22;14973;51.460;7.008;2023-10-31T12:18:20;14.90;99.90
27534;DHT22;14973;51.460;7.008;2023-10-31T12:20:50;14.90;99.90
27534;DHT22;14973;51.460;7.008;2023-10-31T12:23:17;14.90;99.90
27534;DHT22;14973;51.460;7.008;2023-10-31T12:25:50;14.80;99.90
27534;DHT22;14973;51.460;7.008;2023-10-31T12:28:19;14.70;99.90
27534;DHT22;14973;51.460;7.008;2023-10-31T12:30:46;14.60;99.90
27534;DHT22;14973;51.460;7.008;2023-10-31T12:33:12;14.60;99.90
27534;DHT22;14973;51.460;7.008;2023-10-31T12:35:38;14.70;99.90
27534;DHT22;14973;51.460;7.008;2023-10-31T12:38:04;14.40;99.90
27534;DHT22;14973;51.460;7.008;2023-10-31T12:40:30;14.20;99.90
27534;DHT22;14973;51.460;7.008;2023-10-31T12:42:57;14.20;1.00
27534;DHT22;14973;51.460;7.008;2023-10-31T12:45:24;14.20;99.90
27534;DHT22;14973;51.460;7.008;2023-10-31T12:48:06;14.30;99.90
27534;DHT22;14973;51.460;7.008;2023-10-31T12:50:33;14.50;99.90
27534;DHT22;14973;51.460;7.008;2023-10-31T12:53:00;14.60;99.90
27534;DHT22;14973;51.460;7.008;2023-10-31T12:55:30;14.70;23.30
27534;DHT22;14973;51.460;7.008;2023-10-31T12:57:57;14.70;14.40
27534;DHT22;14973;51.460;7.008;2023-10-31T13:00:30;14.60;1.00
27534;DHT22;14973;51.460;7.008;2023-10-31T13:05:27;14.60;53.90
27534;DHT22;14973;51.460;7.008;2023-10-31T13:07:54;14.60;99.90
27534;DHT22;14973;51.460;7.008;2023-10-31T13:10:25;14.70;99.90
27534;DHT22;14973;51.460;7.008;2023-10-31T13:12:51;14.80;99.90
27534;DHT22;14973;51.460;7.008;2023-10-31T13:15:19;14.80;99.90
27534;DHT22;14973;51.460;7.008;2023-10-31T13:17:45;14.80;99.90
27534;DHT22;14973;51.460;7.008;2023-10-31T13:20:12;14.60;99.90
27534;DHT22;14973;51.460;7.008;2023-10-31T13:22:39;14.50;99.90
27534;DHT22;14973;51.460;7.008;2023-10-31T13:25:06;14.40;99.90
27534;DHT22;14973;51.460;7.008;2023-10-31T13:27:34;14.30;99.90
27534;DHT22;14973;51.460;7.008;2023-10-31T13:30:03;14.20;99.90
27534;DHT22;14973;51.460;7.008;2023-10-31T13:32:29;14.10;1.00
27534;DHT22;14973;51.460;7.008;2023-10-31T13:34:55;14.00;1.00
27534;DHT22;14973;51.460;7.008;2023-10-31T13:37:20;14.10;1.00
27534;DHT22;14973;51.460;7.008;2023-10-31T13:39:46;13.90;1.00
27534;DHT22;14973;51.460;7.008;2023-10-31T13:42:12;14.10;1.00
27534;DHT22;14973;51.460;7.008;2023-10-31T13:44:40;14.10;1.00
27534;DHT22;14973;51.460;7.008;2023-10-31T13:47:05;14.10;99.90
27534;DHT22;14973;51.460;7.008;2023-10-31T13:49:31;14.10;99.90
27534;DHT22;14973;51.460;7.008;2023-10-31T13:51:56;14.10;99.90
27534;DHT22;14973;51.460;7.008;2023-10-31T13:54:22;14.00;99.90
27534;DHT22;14973;51.460;7.008;2023-10-31T13:56:47;14.00;99.90
27534;DHT22;14973;51.460;7.008;2023-10-31T13:59:13;13.90;99.90
27534;DHT22;14973;51.460;7.008;2023-10-31T14:01:40;13.90;99.90
27534;DHT22;14973;51.460;7.008;2023-10-31T14:04:07;14.00;99.90
27534;DHT22;14973;51.460;7.008;2023-10-31T14:06:33;13.90;99.90
27534;DHT22;14973;51.460;7.008;2023-10-31T14:09:00;13.90;99.90
27534;DHT22;14973;51.460;7.008;2023-10-31T14:11:27;13.90;1.00
27534;DHT22;14973;51.460;7.008;2023-10-31T14:13:53;13.90;1.00
27534;DHT22;14973;51.460;7.008;2023-10-31T14:16:18;13.90;1.00
27534;DHT22;14973;51.460;7.008;2023-10-31T14:18:44;13.70;1.00
27534;DHT22;14973;51.460;7.008;2023-10-31T14:21:11;13.60;1.00
27534;DHT22;14973;51.460;7.008;2023-10-31T14:23:37;13.60;1.00
27534;DHT22;14973;51.460;7.008;2023-10-31T14:26:03;13.60;1.00
27534;DHT22;14973;51.460;7.008;2023-10-31T14:28:28;13.60;1.00
27534;DHT22;14973;51.460;7.008;2023-10-31T14:30:54;13.60;1.00
27534;DHT22;14973;51.460;7.008;2023-10-31T14:33:20;13.60;1.00
27534;DHT22;14973;51.460;7.008;2023-10-31T14:35:45;13.70;1.00
27534;DHT22;14973;51.460;7.008;2023-10-31T14:38:11;13.70;1.00
27534;DHT22;14973;51.460;7.008;2023-10-31T14:40:37;13.70;1.00
27534;DHT22;14973;51.460;7.008;2023-10-31T14:43:02;13.70;1.00
27534;DHT22;14973;51.460;7.008;2023-10-31T14:45:28;13.70;1.00
27534;DHT22;14973;51.460;7.008;2023-10-31T14:47:54;13.60;1.00
27534;DHT22;14973;51.460;7.008;2023-10-31T14:50:20;13.60;1.00
27534;DHT22;14973;51.460;7.008;2023-10-31T14:52:48;13.60;1.00
27534;DHT22;14973;51.460;7.008;2023-10-31T14:55:14;13.50;1.00
27534;DHT22;14973;51.460;7.008;2023-10-31T14:57:40;13.30;1.00
27534;DHT22;14973;51.460;7.008;2023-10-31T15:00:07;13.20;1.00
27534;DHT22;14973;51.460;7.008;2023-10-31T15:02:36;13.20;1.00
27534;DHT22;14973;51.460;7.008;2023-10-31T15:05:02;13.20;1.00
27534;DHT22;14973;51.460;7.008;2023-10-31T15:07:29;13.10;1.00
27534;DHT22;14973;51.460;7.008;2023-10-31T15:09:54;13.10;1.00
27534;DHT22;14973;51.460;7.008;2023-10-31T15:12:20;13.10;1.00
27534;DHT22;14973;51.460;7.008;2023-10-31T15:14:46;13.10;1.00
27534;DHT22;14973;51.460;7.008;2023-10-31T15:17:11;13.10;1.00
27534;DHT22;14973;51.460;7.008;2023-10-31T15:19:37;13.10;1.00
27534;DHT22;14973;51.460;7.008;2023-10-31T15:22:03;13.10;1.00
27534;DHT22;14973;51.460;7.008;2023-10-31T15:24:29;13.00;1.00
27534;DHT22;14973;51.460;7.008;2023-10-31T15:26:55;12.90;1.00
27534;DHT22;14973;51.460;7.008;2023-10-31T15:29:21;12.90;1.00
27534;DHT22;14973;51.460;7.008;2023-10-31T15:31:47;12.80;1.00
27534;DHT22;14973;51.460;7.008;2023-10-31T15:34:15;12.70;1.00
27534;DHT22;14973;51.460;7.008;2023-10-31T15:36:40;12.60;1.00
27534;DHT22;14973;51.460;7.008;2023-10-31T15:39:06;12.60;13.10
27534;DHT22;14973;51.460;7.008;2023-10-31T15:41:32;12.50;25.70